Time;durP1;ratioP1;P1;durP2;ratioP2;P2;SDS_P1;SDS_P2;PMS_P1;PMS_P2;Temp;Humidity;BMP_temperature;BMP_pressure;BME280_temperature;BME280_humidity;BME280_pressure;Samples;Min_cycle;Max_cycle;Signal;HPM_P1;HPM_P2
2022/01/28 00:02:35;;;;;;;2.22;1.70;;;5.30;99.40;;;;;;5136112;27;20028;-68
2022/01/28 00:04:59;;;;;;;2.40;1.83;;;5.30;99.30;;;;;;5135608;27;20138;-68
2022/01/28 00:07:25;;;;;;;2.30;1.80;;;5.30;99.30;;;;;;5116921;27;20043;-69
2022/01/28 00:09:51;;;;;;;2.05;1.85;;;5.30;99.20;;;;;;5135885;27;20122;-69
2022/01/28 00:12:16;;;;;;;3.38;1.80;;;5.30;99.40;;;;;;5117404;27;20023;-69
2022/01/28 00:15:01;;;;;;;1.98;1.77;;;5.30;99.20;;;;;;5133265;27;21329;-69
2022/01/28 00:37:02;;;;;;;2.00;1.75;;;5.40;98.80;;;;;;5114111;28;20114;-70
2022/01/28 00:39:28;;;;;;;2.28;1.77;;;5.40;98.90;;;;;;5114049;28;20028;-68
2022/01/28 00:41:53;;;;;;;2.00;1.80;;;5.40;98.80;;;;;;5114793;28;20075;-68
2022/01/28 00:44:19;;;;;;;2.47;1.70;;;5.40;98.90;;;;;;5114672;28;20019;-69
2022/01/28 00:46:45;;;;;;;2.08;1.88;;;5.40;98.80;;;;;;5113825;28;20034;-69
2022/01/28 00:49:10;;;;;;;2.28;1.70;;;5.40;98.70;;;;;;5113404;28;20031;-69
2022/01/28 00:51:54;;;;;;;2.50;1.90;;;5.40;98.90;;;;;;5114021;28;20027;-69
2022/01/28 00:54:20;;;;;;;2.20;1.90;;;5.50;99.00;;;;;;5114270;28;20028;-70
2022/01/28 00:56:47;;;;;;;2.63;1.98;;;5.50;99.10;;;;;;5093802;28;20040;-70
2022/01/28 00:59:13;;;;;;;2.30;1.88;;;5.40;99.40;;;;;;5093646;28;20388;-68
2022/01/28 01:01:39;;;;;;;2.22;1.60;;;5.50;99.50;;;;;;5105831;28;20127;-68
2022/01/28 01:04:05;;;;;;;2.40;1.80;;;5.40;99.40;;;;;;5113699;28;20034;-69
2022/01/28 01:06:31;;;;;;;2.15;1.92;;;5.50;99.40;;;;;;5113257;28;20030;-69
2022/01/28 01:08:57;;;;;;;2.53;1.90;;;5.40;99.60;;;;;;5095373;28;20016;-68
2022/01/28 01:11:24;;;;;;;2.40;1.90;;;5.40;99.60;;;;;;5113822;28;20055;-68
2022/01/28 01:13:51;;;;;;;2.22;1.80;;;5.40;99.90;;;;;;5113451;28;20058;-68
2022/01/28 01:16:24;;;;;;;1.80;1.60;;;5.40;99.90;;;;;;5114069;28;20035;-69
2022/01/28 01:19:39;;;;;;;2.47;2.28;;;5.30;99.90;;;;;;5113412;28;20020;-68
2022/01/28 01:21:41;;;;;;;2.15;1.83;;;5.30;99.90;;;;;;5105763;28;20494;-69
2022/01/28 01:24:09;;;;;;;;;;;5.30;99.90;;;;;;5114295;28;20034;-69
2022/01/28 01:26:38;;;;;;;1.95;1.63;;;5.30;99.90;;;;;;5113220;28;19956;-68
2022/01/28 01:29:07;;;;;;;2.20;1.80;;;5.30;99.90;;;;;;5113764;28;20053;-69
2022/01/28 01:31:32;;;;;;;1.70;1.60;;;5.30;99.90;;;;;;5113092;28;20364;-68
2022/01/28 01:34:09;;;;;;;1.90;1.70;;;5.30;99.90;;;;;;5113490;28;20029;-69
2022/01/28 01:36:35;;;;;;;1.65;1.35;;;5.30;99.90;;;;;;5112941;28;20341;-68
2022/01/28 01:39:01;;;;;;;1.90;1.55;;;5.30;99.80;;;;;;5113495;28;20035;-68
2022/01/28 01:41:42;;;;;;;1.92;1.52;;;5.30;99.50;;;;;;5113589;28;20028;-68
2022/01/28 01:44:19;;;;;;;1.70;1.55;;;5.30;99.10;;;;;;5113474;28;20027;-68
2022/01/28 01:52:07;;;;;;;1.45;1.27;;;5.40;98.90;;;;;;5112977;28;20034;-68
2022/01/28 01:54:37;;;;;;;1.95;1.45;;;5.40;98.70;;;;;;5114742;27;20032;-67
2022/01/28 01:57:05;;;;;;;1.98;1.40;;;5.40;98.70;;;;;;5133973;27;20019;-68
2022/01/28 01:59:30;;;;;;;1.60;1.50;;;5.40;98.90;;;;;;5133163;27;20035;-67
2022/01/28 02:01:56;;;;;;;1.60;1.50;;;5.40;99.60;;;;;;5132987;27;20027;-68
2022/01/28 02:04:22;;;;;;;2.50;1.95;;;5.30;99.90;;;;;;5133770;27;20379;-68
2022/01/28 02:06:48;;;;;;;2.15;1.75;;;5.30;99.90;;;;;;5133315;27;20363;-69
2022/01/28 02:09:14;;;;;;;4.00;1.83;;;5.20;99.90;;;;;;5133578;27;20023;-69
2022/01/28 02:11:41;;;;;;;2.42;1.90;;;5.20;99.90;;;;;;5130662;27;20352;-68
2022/01/28 02:14:07;;;;;;;2.20;2.00;;;5.20;99.90;;;;;;5114303;27;20031;-68
2022/01/28 02:19:17;;;;;;;2.38;1.67;;;5.10;99.90;;;;;;5112573;28;20042;-68
2022/01/28 02:21:47;;;;;;;2.47;1.70;;;5.10;99.90;;;;;;5111959;28;20032;-69
2022/01/28 02:24:16;;;;;;;3.25;1.85;;;5.10;99.90;;;;;;5112909;28;20015;-69
2022/01/28 02:26:42;;;;;;;2.10;1.90;;;5.10;99.90;;;;;;5111987;28;20084;-68
2022/01/28 02:29:12;;;;;;;2.08;1.88;;;5.10;99.90;;;;;;5112704;28;20102;-68
2022/01/28 02:31:38;;;;;;;1.80;1.70;;;5.10;99.90;;;;;;5111978;28;20036;-68
2022/01/28 02:34:06;;;;;;;2.30;1.88;;;5.00;99.90;;;;;;5112588;28;20495;-68
2022/01/28 02:36:31;;;;;;;1.83;1.60;;;5.00;99.90;;;;;;5112595;28;20020;-67
2022/01/28 02:39:01;;;;;;;3.40;1.90;;;5.00;99.90;;;;;;5111802;28;20027;-68
2022/01/28 02:41:31;;;;;;;1.95;1.52;;;5.00;99.90;;;;;;5112464;28;20038;-68
2022/01/28 02:46:53;;;;;;;2.60;1.90;;;5.00;99.90;;;;;;5112420;28;20088;-68
2022/01/28 02:49:19;;;;;;;1.95;1.75;;;4.90;99.90;;;;;;5112592;28;20114;-68
2022/01/28 02:51:45;;;;;;;1.70;1.40;;;4.90;99.90;;;;;;5111701;28;20027;-68
2022/01/28 02:54:13;;;;;;;2.47;1.90;;;4.90;99.90;;;;;;5112518;28;20083;-68
2022/01/28 02:56:46;;;;;;;1.83;1.63;;;4.90;99.90;;;;;;5111836;28;20048;-69
2022/01/28 02:59:12;;;;;;;2.90;1.90;;;4.90;99.90;;;;;;5112501;28;20032;-68
2022/01/28 03:01:38;;;;;;;2.05;1.85;;;4.90;99.90;;;;;;5112448;28;20031;-68
2022/01/28 03:04:05;;;;;;;2.58;1.92;;;4.90;99.90;;;;;;5112244;28;20051;-68
2022/01/28 03:06:31;;;;;;;2.25;1.83;;;4.90;99.90;;;;;;5112235;28;20028;-68
2022/01/28 03:09:11;;;;;;;2.22;2.03;;;4.90;99.90;;;;;;5111673;28;20102;-68
2022/01/28 03:14:17;;;;;;;2.15;1.95;;;4.90;99.90;;;;;;5116296;28;20317;-68
2022/01/28 03:19:27;;;;;;;2.15;1.95;;;4.90;99.90;;;;;;5136407;27;20030;-68
2022/01/28 03:21:55;;;;;;;1.85;1.65;;;4.90;99.90;;;;;;5135796;27;20031;-69
2022/01/28 03:24:26;;;;;;;2.17;1.98;;;4.90;99.90;;;;;;5136228;27;20485;-69
2022/01/28 03:26:58;;;;;;;2.13;1.83;;;4.90;99.90;;;;;;5135796;27;20098;-68
2022/01/28 03:29:24;;;;;;;2.63;2.22;;;4.90;99.90;;;;;;5135353;27;20039;-68
2022/01/28 03:31:50;;;;;;;2.17;1.70;;;4.90;99.90;;;;;;5132312;27;20102;-68
2022/01/28 03:34:16;;;;;;;2.50;1.90;;;4.80;99.90;;;;;;5135934;27;20439;-69
2022/01/28 03:36:41;;;;;;;2.97;2.25;;;4.80;99.90;;;;;;5133605;27;20375;-69
2022/01/28 03:39:09;;;;;;;2.03;1.80;;;4.80;99.90;;;;;;5135946;27;20034;-68
2022/01/28 03:41:35;;;;;;;3.85;2.38;;;4.80;99.90;;;;;;5136233;27;20126;-68
2022/01/28 03:44:01;;;;;;;2.13;1.92;;;4.80;99.90;;;;;;5135477;27;20187;-68
2022/01/28 03:46:27;;;;;;;2.40;1.95;;;4.80;99.90;;;;;;5135449;27;20098;-68
2022/01/28 03:48:55;;;;;;;2.35;2.00;;;4.90;99.90;;;;;;5130460;27;20027;-69
2022/01/28 03:51:21;;;;;;;2.10;1.80;;;4.80;99.90;;;;;;5133374;27;20026;-68
2022/01/28 03:53:47;;;;;;;2.35;1.90;;;4.90;99.90;;;;;;5132347;27;20023;-69
2022/01/28 03:56:13;;;;;;;2.80;2.10;;;4.90;99.90;;;;;;5135131;27;20399;-68
2022/01/28 03:58:39;;;;;;;2.10;1.90;;;4.90;99.90;;;;;;5134382;27;20325;-68
2022/01/28 04:01:12;;;;;;;1.90;1.67;;;4.90;99.90;;;;;;5134956;27;20034;-68
2022/01/28 04:03:43;;;;;;;2.33;1.92;;;4.90;99.90;;;;;;5136084;27;20023;-69
2022/01/28 04:11:39;;;;;;;2.53;1.70;;;4.90;99.00;;;;;;5130957;27;20110;-68
2022/01/28 04:19:35;;;;;;;2.10;1.90;;;5.00;98.30;;;;;;5135209;27;20482;-68
2022/01/28 04:22:01;;;;;;;3.10;2.00;;;5.00;98.10;;;;;;5134096;27;20055;-68
2022/01/28 04:24:26;;;;;;;2.28;1.90;;;5.00;98.00;;;;;;5134598;27;20100;-68
2022/01/28 04:26:52;;;;;;;2.30;1.92;;;5.00;97.80;;;;;;5134189;27;20058;-68
2022/01/28 04:29:18;;;;;;;2.38;2.10;;;5.00;97.70;;;;;;5135007;27;20133;-69
2022/01/28 04:31:46;;;;;;;2.40;2.20;;;5.00;97.70;;;;;;5134556;27;20015;-68
2022/01/28 04:34:16;;;;;;;2.10;1.83;;;5.00;97.30;;;;;;5132498;27;20184;-68
2022/01/28 04:37:03;;;;;;;2.50;2.20;;;5.00;97.30;;;;;;5134662;27;20121;-67
2022/01/28 04:47:28;;;;;;;3.03;2.33;;;5.00;96.50;;;;;;5135080;27;20023;-69
2022/01/28 04:55:48;;;;;;;2.17;1.98;;;5.10;95.60;;;;;;5134177;27;20054;-65
2022/01/28 05:27:10;;;;;;;4.75;2.70;;;5.20;94.50;;;;;;5081836;27;20084;-66
2022/01/28 05:29:36;;;;;;;2.72;2.53;;;5.20;95.00;;;;;;5134100;27;20182;-65
2022/01/28 05:32:02;;;;;;;3.00;2.40;;;5.20;95.00;;;;;;5133303;27;20138;-65
2022/01/28 05:34:28;;;;;;;3.53;3.17;;;5.20;95.30;;;;;;5133393;27;20034;-66
2022/01/28 05:36:55;;;;;;;3.97;2.60;;;5.10;95.50;;;;;;5133604;27;20405;-66
2022/01/28 05:39:21;;;;;;;3.72;2.90;;;5.10;95.70;;;;;;5133050;27;20030;-66
2022/01/28 05:41:47;;;;;;;4.43;2.97;;;5.10;95.80;;;;;;5131324;27;20490;-66
2022/01/28 05:44:12;;;;;;;5.18;3.30;;;5.10;96.00;;;;;;5133554;27;20020;-65
2022/01/28 05:46:38;;;;;;;4.60;3.03;;;5.10;96.10;;;;;;5132919;27;20031;-66
2022/01/28 05:49:04;;;;;;;5.05;3.30;;;5.10;96.40;;;;;;5132191;27;20031;-66
2022/01/28 05:51:30;;;;;;;5.13;3.72;;;5.10;96.50;;;;;;5131806;27;20075;-67
2022/01/28 05:53:58;;;;;;;3.47;2.97;;;5.10;96.50;;;;;;5131303;27;20459;-67
2022/01/28 05:56:27;;;;;;;3.45;3.15;;;5.10;96.60;;;;;;5131778;27;20476;-67
2022/01/28 05:58:54;;;;;;;4.82;3.35;;;5.00;96.60;;;;;;5132968;27;20023;-63
2022/01/28 06:01:20;;;;;;;3.75;3.15;;;5.00;96.60;;;;;;5132225;27;20039;-64
2022/01/28 06:03:47;;;;;;;3.60;2.90;;;5.10;96.50;;;;;;5129520;27;20019;-64
2022/01/28 06:06:19;;;;;;;4.97;3.47;;;5.00;96.00;;;;;;5132892;27;20425;-64
2022/01/28 06:08:49;;;;;;;4.28;2.90;;;5.00;95.80;;;;;;5133193;27;20031;-64
2022/01/28 06:11:17;;;;;;;4.72;2.45;;;5.00;95.30;;;;;;5133293;27;20076;-64
2022/01/28 06:13:43;;;;;;;3.33;2.53;;;5.00;95.10;;;;;;5132395;27;20027;-64
2022/01/28 06:16:10;;;;;;;4.30;2.70;;;5.00;94.70;;;;;;5130357;27;20490;-64
2022/01/28 06:18:36;;;;;;;3.45;2.35;;;5.00;93.60;;;;;;5132267;27;20031;-64
2022/01/28 06:21:02;;;;;;;3.95;2.33;;;5.00;93.20;;;;;;5131263;27;20267;-64
2022/01/28 06:23:28;;;;;;;5.22;2.90;;;5.00;93.00;;;;;;5133092;27;20023;-64
2022/01/28 06:25:54;;;;;;;3.83;2.30;;;5.00;92.60;;;;;;5132262;27;20023;-64
2022/01/28 06:28:19;;;;;;;3.17;2.25;;;5.00;92.60;;;;;;5132977;27;20109;-64
2022/01/28 06:30:45;;;;;;;3.75;2.50;;;5.00;92.60;;;;;;5132902;27;20102;-65
2022/01/28 06:33:12;;;;;;;3.25;2.35;;;5.00;92.60;;;;;;5132431;27;20055;-65
2022/01/28 06:35:39;;;;;;;3.25;2.45;;;5.00;92.80;;;;;;5132822;27;20375;-64
2022/01/28 06:38:05;;;;;;;6.72;3.05;;;5.00;93.10;;;;;;5132358;27;20072;-64
2022/01/28 06:40:31;;;;;;;4.82;3.08;;;5.00;93.80;;;;;;5118931;27;20028;-64
2022/01/28 06:42:56;;;;;;;6.43;3.35;;;5.00;94.30;;;;;;5111689;28;20031;-64
2022/01/28 06:45:22;;;;;;;5.32;3.45;;;5.00;94.80;;;;;;5112401;28;20035;-65
2022/01/28 06:47:48;;;;;;;4.07;3.13;;;4.90;95.20;;;;;;5112365;28;20019;-65
2022/01/28 06:50:13;;;;;;;6.65;3.30;;;4.90;95.30;;;;;;5111506;28;20032;-65
2022/01/28 06:52:41;;;;;;;4.35;2.33;;;4.90;95.10;;;;;;5112003;28;20051;-65
2022/01/28 06:55:08;;;;;;;5.47;2.78;;;4.90;94.80;;;;;;5111569;28;20519;-65
2022/01/28 06:57:33;;;;;;;3.50;2.10;;;4.90;94.80;;;;;;5112371;28;20031;-65
2022/01/28 06:59:59;;;;;;;3.13;1.90;;;4.90;95.10;;;;;;5111639;28;20479;-64
2022/01/28 07:02:25;;;;;;;2.85;1.98;;;4.90;95.10;;;;;;5112453;28;20235;-65
2022/01/28 07:04:51;;;;;;;3.25;1.50;;;4.90;95.10;;;;;;5112010;28;20062;-65
2022/01/28 07:07:17;;;;;;;1.67;1.15;;;4.90;94.90;;;;;;5111566;28;20023;-66
2022/01/28 07:09:43;;;;;;;2.47;1.50;;;4.90;95.00;;;;;;5093811;28;20035;-66
2022/01/28 07:12:09;;;;;;;2.35;1.67;;;4.90;95.30;;;;;;5111660;28;20421;-65
2022/01/28 07:14:35;;;;;;;3.10;1.73;;;4.90;95.70;;;;;;5112162;28;20098;-65
2022/01/28 07:17:00;;;;;;;3.38;1.98;;;4.90;96.00;;;;;;5111181;28;20062;-65
2022/01/28 07:19:26;;;;;;;5.53;2.15;;;4.90;96.40;;;;;;5111994;28;20031;-64
2022/01/28 07:21:52;;;;;;;3.42;2.15;;;4.90;96.70;;;;;;5112015;28;20024;-65
2022/01/28 07:24:18;;;;;;;3.65;1.85;;;4.90;96.90;;;;;;5111331;28;20032;-65
2022/01/28 07:26:43;;;;;;;2.58;2.38;;;4.90;97.00;;;;;;5111878;28;20054;-64
2022/01/28 07:29:11;;;;;;;3.33;2.38;;;4.90;97.20;;;;;;5111319;28;20091;-65
2022/01/28 07:31:38;;;;;;;2.90;2.50;;;4.90;97.30;;;;;;5111885;28;20384;-65
2022/01/28 07:34:06;;;;;;;3.60;1.98;;;4.90;97.20;;;;;;5111154;28;20413;-65
2022/01/28 07:36:32;;;;;;;3.10;2.08;;;4.90;96.80;;;;;;5111983;28;20028;-64
2022/01/28 07:38:57;;;;;;;3.67;2.00;;;4.90;96.20;;;;;;5111386;28;20027;-64
2022/01/28 07:41:23;;;;;;;2.45;1.52;;;5.00;96.00;;;;;;5111692;28;20039;-64
2022/01/28 07:43:49;;;;;;;2.63;1.73;;;5.00;95.30;;;;;;5111655;28;20031;-64
2022/01/28 07:46:15;;;;;;;2.92;1.50;;;5.00;94.80;;;;;;5098458;28;20026;-63
2022/01/28 07:48:41;;;;;;;4.78;1.40;;;5.00;94.40;;;;;;5113919;28;20378;-63
2022/01/28 07:51:06;;;;;;;4.65;1.75;;;5.10;93.60;;;;;;5131634;28;20111;-65
2022/01/28 07:53:32;;;;;;;1.40;1.10;;;5.20;93.20;;;;;;5132145;28;20027;-64
2022/01/28 07:55:58;;;;;;;4.25;1.27;;;5.40;91.90;;;;;;5130849;27;20411;-64
2022/01/28 07:58:24;;;;;;;2.17;1.52;;;5.60;90.50;;;;;;5134482;27;20432;-65
2022/01/28 08:00:49;;;;;;;3.45;1.40;;;5.90;88.20;;;;;;5135732;27;20038;-64
2022/01/28 08:03:15;;;;;;;1.45;0.98;;;6.10;85.90;;;;;;5134638;27;20092;-64
2022/01/28 08:05:41;;;;;;;4.30;1.00;;;6.40;82.90;;;;;;5135698;27;20031;-65
2022/01/28 08:08:08;;;;;;;2.13;1.23;;;6.70;79.20;;;;;;5116913;27;20031;-64
2022/01/28 08:10:35;;;;;;;3.85;1.02;;;7.00;77.10;;;;;;5135945;27;20448;-65
2022/01/28 08:13:03;;;;;;;2.08;1.08;;;7.20;74.70;;;;;;5135217;27;20069;-65
2022/01/28 08:15:29;;;;;;;2.85;1.00;;;7.40;74.20;;;;;;5135885;27;20058;-65
2022/01/28 08:17:55;;;;;;;2.83;1.10;;;7.50;72.10;;;;;;5136105;27;20488;-65
2022/01/28 08:20:21;;;;;;;1.50;0.85;;;7.50;71.80;;;;;;5135004;27;20080;-65
2022/01/28 08:22:47;;;;;;;3.05;0.90;;;7.50;69.50;;;;;;5135636;27;20363;-65
2022/01/28 08:25:14;;;;;;;3.55;1.08;;;7.50;69.00;;;;;;5134958;27;20030;-65
2022/01/28 08:27:42;;;;;;;2.75;1.05;;;7.40;68.80;;;;;;5118971;27;20028;-63
2022/01/28 08:30:10;;;;;;;2.88;0.80;;;7.40;67.30;;;;;;5114327;28;20032;-64
2022/01/28 08:32:36;;;;;;;0.93;0.60;;;7.30;67.50;;;;;;5114801;28;20036;-64
2022/01/28 08:35:02;;;;;;;7.05;1.15;;;7.40;67.40;;;;;;5113941;28;20030;-64
2022/01/28 08:37:27;;;;;;;5.03;1.05;;;7.40;67.10;;;;;;5114966;28;20374;-63
2022/01/28 08:39:53;;;;;;;2.10;1.02;;;7.40;65.50;;;;;;5114681;28;20032;-63
2022/01/28 08:42:19;;;;;;;2.55;1.27;;;7.40;65.90;;;;;;5113715;28;20249;-64
2022/01/28 08:44:44;;;;;;;3.05;1.48;;;7.40;66.20;;;;;;5114708;28;20038;-65
2022/01/28 08:47:10;;;;;;;3.60;0.98;;;7.30;65.50;;;;;;5114048;28;20024;-65
2022/01/28 08:49:36;;;;;;;2.53;1.20;;;7.30;65.70;;;;;;5114176;28;20033;-65
2022/01/28 08:52:02;;;;;;;2.58;1.15;;;7.30;66.10;;;;;;5113948;28;20452;-65
2022/01/28 08:54:28;;;;;;;2.58;1.55;;;7.20;66.20;;;;;;5114098;28;20043;-64
2022/01/28 08:56:54;;;;;;;6.82;2.10;;;7.20;66.80;;;;;;5114368;28;20376;-64
2022/01/28 08:59:19;;;;;;;4.55;1.50;;;7.20;66.80;;;;;;5113949;28;20106;-64
2022/01/28 09:01:45;;;;;;;2.38;1.70;;;7.10;67.50;;;;;;5114157;28;20024;-64
2022/01/28 09:04:11;;;;;;;8.93;1.52;;;7.10;68.50;;;;;;5113731;28;20027;-64
2022/01/28 09:06:36;;;;;;;3.38;1.65;;;7.10;68.40;;;;;;5096223;28;20050;-64
2022/01/28 09:09:03;;;;;;;3.03;1.30;;;7.00;70.30;;;;;;5112364;28;20027;-64
2022/01/28 09:11:44;;;;;;;3.40;1.40;;;7.00;70.70;;;;;;5113952;28;20449;-64
2022/01/28 09:14:10;;;;;;;2.55;1.30;;;6.90;69.50;;;;;;5113331;28;20028;-64
2022/01/28 09:16:36;;;;;;;2.80;1.20;;;6.80;69.20;;;;;;5113725;28;20042;-64
2022/01/28 09:19:02;;;;;;;4.20;1.42;;;6.70;69.00;;;;;;5113765;28;20015;-64
2022/01/28 09:21:27;;;;;;;4.00;1.38;;;6.60;70.30;;;;;;5114120;28;20360;-64
2022/01/28 09:23:53;;;;;;;1.90;1.27;;;6.60;71.30;;;;;;5113705;28;20027;-64
2022/01/28 09:26:19;;;;;;;4.95;1.17;;;6.60;71.90;;;;;;5112901;28;20024;-64
2022/01/28 09:28:44;;;;;;;2.35;1.75;;;6.60;72.40;;;;;;5113733;28;20028;-63
2022/01/28 09:31:10;;;;;;;2.55;1.48;;;6.50;73.00;;;;;;5113217;28;20444;-64
2022/01/28 09:33:37;;;;;;;4.05;1.95;;;6.60;72.90;;;;;;5113631;28;20456;-64
2022/01/28 09:36:04;;;;;;;4.68;1.70;;;6.50;74.10;;;;;;5113491;28;20124;-64
2022/01/28 09:38:30;;;;;;;2.53;1.35;;;6.50;74.10;;;;;;5113390;28;20055;-64
2022/01/28 09:40:56;;;;;;;3.15;1.40;;;6.40;72.10;;;;;;5113285;28;20070;-64
2022/01/28 09:43:25;;;;;;;2.90;1.30;;;6.50;70.10;;;;;;5112599;28;20150;-65
2022/01/28 09:45:52;;;;;;;5.70;1.25;;;6.50;68.00;;;;;;5113236;28;20056;-65
2022/01/28 09:48:18;;;;;;;4.95;1.10;;;6.60;64.90;;;;;;5121069;27;20023;-64
2022/01/28 09:50:46;;;;;;;2.60;1.40;;;6.80;64.90;;;;;;5115412;27;20347;-64
2022/01/28 09:53:13;;;;;;;3.60;1.90;;;7.00;68.40;;;;;;5133128;27;20123;-65
2022/01/28 09:55:39;;;;;;;5.38;1.77;;;7.20;70.50;;;;;;5133262;27;20043;-65
2022/01/28 09:58:05;;;;;;;3.00;1.52;;;7.40;71.00;;;;;;5133694;27;20035;-66
2022/01/28 10:00:32;;;;;;;5.13;1.40;;;7.40;66.80;;;;;;5133591;27;20027;-65
2022/01/28 10:03:08;;;;;;;3.53;1.30;;;7.60;65.50;;;;;;5133429;27;20088;-64
2022/01/28 10:05:39;;;;;;;3.22;1.23;;;7.70;63.60;;;;;;5133675;27;20027;-64
2022/01/28 10:08:14;;;;;;;;;;;7.70;63.40;;;;;;5115614;27;20384;-64
2022/01/28 10:10:51;;;;;;;2.10;0.90;;;7.70;62.00;;;;;;5133414;27;19903;-64
2022/01/28 10:13:21;;;;;;;3.95;1.20;;;7.70;60.50;;;;;;5132835;27;20142;-65
2022/01/28 10:15:54;;;;;;;2.00;0.70;;;7.60;60.00;;;;;;5133431;27;20027;-64
2022/01/28 10:18:20;;;;;;;2.65;0.65;;;7.50;57.90;;;;;;5132891;27;20054;-65
2022/01/28 10:20:45;;;;;;;2.50;0.90;;;7.50;57.90;;;;;;5132956;27;20084;-64
2022/01/28 10:23:14;;;;;;;2.25;0.73;;;7.50;58.50;;;;;;5132639;27;20031;-64
2022/01/28 10:25:42;;;;;;;2.90;0.75;;;7.60;59.30;;;;;;5131608;27;20447;-64
2022/01/28 10:28:12;;;;;;;2.88;0.75;;;7.60;59.90;;;;;;5112974;27;20027;-64
2022/01/28 10:30:42;;;;;;;3.05;0.70;;;7.70;60.90;;;;;;5112581;28;20030;-66
2022/01/28 10:33:15;;;;;;;4.55;1.00;;;7.80;60.60;;;;;;5111895;28;20023;-63
2022/01/28 10:35:59;;;;;;;4.22;0.98;;;7.80;60.90;;;;;;5112695;28;20027;-65
2022/01/28 10:38:36;;;;;;;3.75;1.00;;;7.80;61.40;;;;;;5111880;28;20051;-64
2022/01/28 10:41:14;;;;;;;4.45;1.10;;;7.80;61.40;;;;;;5112194;28;20087;-65
2022/01/28 10:43:46;;;;;;;1.65;0.90;;;7.70;62.00;;;;;;5112536;28;20028;-64
2022/01/28 10:46:12;;;;;;;3.53;1.20;;;7.60;62.10;;;;;;5111700;28;20030;-64
2022/01/28 10:48:55;;;;;;;2.08;0.90;;;7.50;62.20;;;;;;5112392;28;20028;-63
2022/01/28 10:51:35;;;;;;;3.28;0.80;;;7.40;62.20;;;;;;5112105;28;20074;-64
2022/01/28 10:54:08;;;;;;;2.75;0.77;;;7.30;62.00;;;;;;5112188;28;20019;-64
2022/01/28 10:56:53;;;;;;;3.05;1.00;;;7.20;62.00;;;;;;5111359;28;20059;-66
2022/01/28 10:59:23;;;;;;;2.60;0.93;;;7.10;62.20;;;;;;5111511;28;20038;-64
2022/01/28 11:01:49;;;;;;;3.70;1.08;;;7.10;62.30;;;;;;5111871;28;20487;-64
2022/01/28 11:04:17;;;;;;;3.33;0.90;;;7.10;62.10;;;;;;5111997;28;20028;-63
2022/01/28 11:06:44;;;;;;;2.88;0.98;;;7.10;61.60;;;;;;5112383;28;20023;-64
2022/01/28 11:09:11;;;;;;;2.97;0.80;;;7.00;62.30;;;;;;5112319;28;20080;-63
2022/01/28 11:11:37;;;;;;;4.78;0.90;;;6.90;63.20;;;;;;5112023;28;20027;-65
2022/01/28 11:14:04;;;;;;;2.78;0.90;;;6.90;63.70;;;;;;5112254;28;20027;-65
2022/01/28 11:16:30;;;;;;;3.90;0.85;;;6.90;63.20;;;;;;5093098;28;20357;-64
2022/01/28 11:18:57;;;;;;;2.20;0.90;;;7.10;62.40;;;;;;5111976;28;20030;-65
2022/01/28 11:22:04;;;;;;;2.75;0.90;;;7.20;61.50;;;;;;5111498;28;20061;-65
2022/01/28 11:24:50;;;;;;;1.77;0.95;;;7.30;61.30;;;;;;5107620;28;20039;-64
2022/01/28 11:27:34;;;;;;;4.72;1.00;;;7.40;60.40;;;;;;5059912;28;20084;-64
2022/01/28 11:30:23;;;;;;;3.67;1.10;;;7.50;60.00;;;;;;5112009;28;20418;-64
2022/01/28 11:33:06;;;;;;;2.28;0.80;;;7.70;59.60;;;;;;5113804;28;20043;-65
2022/01/28 11:35:31;;;;;;;2.72;0.98;;;7.80;58.00;;;;;;5115373;28;20067;-64
2022/01/28 11:38:03;;;;;;;3.20;1.20;;;7.90;58.00;;;;;;5115582;28;20059;-64
2022/01/28 11:40:43;;;;;;;2.58;0.75;;;8.00;56.40;;;;;;5115194;28;20122;-65
2022/01/28 11:43:20;;;;;;;4.75;0.98;;;8.00;55.60;;;;;;5115702;28;20027;-65
2022/01/28 11:45:46;;;;;;;4.40;1.02;;;8.00;54.80;;;;;;5115602;28;20425;-66
2022/01/28 11:48:11;;;;;;;3.00;1.17;;;8.00;54.80;;;;;;5115644;28;20024;-66
2022/01/28 11:50:37;;;;;;;2.72;1.20;;;8.00;54.80;;;;;;5127714;27;20038;-65
2022/01/28 11:53:22;;;;;;;2.70;0.73;;;7.90;54.50;;;;;;5135666;27;20023;-65
2022/01/28 11:56:01;;;;;;;3.63;0.98;;;7.90;54.90;;;;;;5135919;27;20066;-65
2022/01/28 11:58:51;;;;;;;2.80;1.13;;;7.90;55.20;;;;;;5135110;27;20035;-64
2022/01/28 12:01:25;;;;;;;2.00;1.05;;;7.90;54.90;;;;;;5135297;27;20443;-64
2022/01/28 12:04:11;;;;;;;2.15;1.02;;;8.00;54.30;;;;;;5135910;27;20042;-65
2022/01/28 12:06:38;;;;;;;3.05;1.08;;;8.00;53.30;;;;;;5135212;27;20160;-64
2022/01/28 12:09:05;;;;;;;2.38;1.30;;;8.10;53.20;;;;;;5135964;27;20035;-65
2022/01/28 12:11:44;;;;;;;4.22;1.05;;;8.10;53.00;;;;;;5135470;27;20026;-64
2022/01/28 12:14:13;;;;;;;3.30;1.10;;;8.00;53.10;;;;;;5135809;27;20102;-65
2022/01/28 12:16:45;;;;;;;1.88;0.90;;;7.90;53.10;;;;;;5135068;27;20057;-65
2022/01/28 12:19:36;;;;;;;4.00;0.93;;;7.80;53.00;;;;;;5135603;27;20109;-64
2022/01/28 12:22:13;;;;;;;3.40;1.30;;;7.70;53.40;;;;;;5135563;27;20087;-64
2022/01/28 12:24:39;;;;;;;3.42;0.80;;;7.60;53.60;;;;;;5134593;27;20147;-64
2022/01/28 12:27:10;;;;;;;3.55;0.98;;;7.60;54.00;;;;;;5135543;27;20102;-65
2022/01/28 12:29:43;;;;;;;3.38;1.20;;;7.50;54.20;;;;;;5134906;27;20621;-65
2022/01/28 12:32:10;;;;;;;3.90;1.05;;;7.40;54.70;;;;;;5135403;27;20027;-65
2022/01/28 12:34:44;;;;;;;3.50;1.08;;;7.40;56.00;;;;;;5117920;27;20342;-64
2022/01/28 12:37:10;;;;;;;2.88;1.13;;;7.30;57.00;;;;;;5114816;28;20102;-65
2022/01/28 12:39:40;;;;;;;2.60;1.00;;;7.10;58.20;;;;;;5114054;28;20199;-65
2022/01/28 12:42:28;;;;;;;3.50;1.20;;;7.10;58.90;;;;;;5114670;28;20108;-65
2022/01/28 12:44:57;;;;;;;2.35;1.15;;;7.00;59.30;;;;;;5114483;28;20118;-65
2022/01/28 12:47:23;;;;;;;4.25;1.27;;;7.00;59.20;;;;;;5113680;28;20594;-65
2022/01/28 12:50:02;;;;;;;2.78;1.10;;;7.00;59.50;;;;;;5114434;28;20027;-65
2022/01/28 12:52:30;;;;;;;3.65;1.20;;;6.90;59.10;;;;;;5113834;28;20031;-64
2022/01/28 12:54:56;;;;;;;3.33;1.25;;;6.90;58.50;;;;;;5114335;28;20058;-64
2022/01/28 12:57:22;;;;;;;5.63;1.02;;;6.90;58.80;;;;;;5114049;28;20023;-64
2022/01/28 12:59:49;;;;;;;3.15;1.02;;;6.90;59.20;;;;;;5113983;28;20104;-64
2022/01/28 13:02:17;;;;;;;6.70;1.27;;;6.80;59.50;;;;;;5114239;28;20035;-64
2022/01/28 13:10:21;;;;;;;3.78;0.95;;;6.90;59.30;;;;;;5113816;28;20049;-64
2022/01/28 13:12:47;;;;;;;3.95;1.13;;;6.90;59.30;;;;;;5113778;28;20114;-63
2022/01/28 13:15:14;;;;;;;5.40;1.38;;;6.90;59.70;;;;;;5114052;28;20448;-63
2022/01/28 13:20:49;;;;;;;3.72;1.08;;;6.90;59.20;;;;;;5082200;28;20046;-65
2022/01/28 13:23:15;;;;;;;2.95;0.90;;;6.90;58.90;;;;;;5113652;28;20454;-65
2022/01/28 13:25:41;;;;;;;3.08;1.10;;;6.80;58.20;;;;;;5112817;28;20533;-65
2022/01/28 13:28:14;;;;;;;3.53;1.10;;;6.80;57.30;;;;;;5113517;28;20036;-64
2022/01/28 13:30:41;;;;;;;5.03;1.52;;;6.80;57.60;;;;;;5112575;28;20468;-64
2022/01/28 13:33:09;;;;;;;3.63;1.27;;;6.80;57.70;;;;;;5113369;28;20099;-64
2022/01/28 13:35:37;;;;;;;4.68;1.08;;;6.90;57.80;;;;;;5112789;28;20027;-64
2022/01/28 13:38:17;;;;;;;3.47;1.20;;;6.90;57.70;;;;;;5113441;28;20448;-64
2022/01/28 13:40:43;;;;;;;4.30;1.50;;;6.90;58.10;;;;;;5112629;28;20412;-64
2022/01/28 13:43:15;;;;;;;4.55;1.45;;;6.80;58.30;;;;;;5113332;28;20027;-65
2022/01/28 13:45:52;;;;;;;5.65;1.60;;;6.80;58.30;;;;;;5112571;28;20023;-65
2022/01/28 13:48:38;;;;;;;4.05;1.70;;;6.90;58.60;;;;;;5113243;28;20023;-65
2022/01/28 13:51:14;;;;;;;3.25;1.40;;;6.90;58.10;;;;;;5113363;28;20028;-64
2022/01/28 13:56:33;;;;;;;4.10;1.20;;;6.80;57.90;;;;;;5132810;27;20047;-63
2022/01/28 13:59:00;;;;;;;6.05;1.30;;;6.80;58.50;;;;;;5133960;27;20046;-64
2022/01/28 14:01:28;;;;;;;5.00;1.50;;;6.80;58.10;;;;;;5133080;27;20039;-64
2022/01/28 14:04:01;;;;;;;3.72;1.30;;;6.80;58.20;;;;;;5133289;27;20464;-64
2022/01/28 14:06:35;;;;;;;3.90;1.63;;;6.80;58.10;;;;;;5132821;27;20113;-65
2022/01/28 14:09:09;;;;;;;5.15;1.50;;;6.80;58.00;;;;;;5133556;27;20027;-63
2022/01/28 14:11:44;;;;;;;4.97;1.60;;;6.70;58.10;;;;;;5132785;27;20023;-63
2022/01/28 14:14:34;;;;;;;2.90;1.02;;;6.70;58.80;;;;;;5133607;27;20094;-64
2022/01/28 14:17:03;;;;;;;2.40;1.17;;;6.70;59.10;;;;;;5133681;27;20023;-64
2022/01/28 14:19:31;;;;;;;6.60;1.50;;;6.60;59.40;;;;;;5132957;27;20033;-64
2022/01/28 14:21:59;;;;;;;3.10;1.40;;;6.60;59.70;;;;;;5133438;27;20031;-64
2022/01/28 14:24:30;;;;;;;3.65;1.35;;;6.60;59.80;;;;;;5133012;27;20423;-64
2022/01/28 14:32:15;;;;;;;3.58;1.42;;;6.60;59.90;;;;;;5133127;27;20061;-65
2022/01/28 14:34:42;;;;;;;7.63;1.40;;;6.50;59.70;;;;;;5132524;27;20055;-64
2022/01/28 14:37:08;;;;;;;7.30;1.65;;;6.50;59.70;;;;;;5132942;27;20041;-65
2022/01/28 14:39:36;;;;;;;4.75;1.20;;;6.50;59.60;;;;;;5132000;27;20110;-65
2022/01/28 14:42:05;;;;;;;4.03;1.38;;;6.50;59.70;;;;;;5132996;27;20049;-64
2022/01/28 14:44:36;;;;;;;3.42;1.10;;;6.50;59.90;;;;;;5132144;27;20118;-65
2022/01/28 14:47:03;;;;;;;5.68;1.52;;;6.50;59.70;;;;;;5133130;27;20459;-65
2022/01/28 14:49:29;;;;;;;4.50;1.92;;;6.50;59.90;;;;;;5132346;27;20113;-65
2022/01/28 14:51:59;;;;;;;7.07;1.70;;;6.50;60.20;;;;;;5132779;27;20115;-65
2022/01/28 14:54:28;;;;;;;8.80;1.33;;;6.50;60.10;;;;;;5132734;27;20030;-64